Time;durP1;ratioP1;P1;durP2;ratioP2;P2;SDS_P1;SDS_P2;PMS_P1;PMS_P2;Temp;Humidity;BMP_temperature;BMP_pressure;BME280_temperature;BME280_humidity;BME280_pressure;Samples;Min_cycle;Max_cycle;Signal;HPM_P1;HPM_P2
2022/11/21 00:02:11;;;;;;;17.00;11.30;;;1.60;99.90;;;;;;5093193;28;20044;-62
2022/11/21 00:04:37;;;;;;;17.92;11.93;;;1.60;99.90;;;;;;5092884;28;20055;-62
2022/11/21 00:07:04;;;;;;;18.55;12.25;;;1.50;99.90;;;;;;5093424;28;20040;-63
2022/11/21 00:09:35;;;;;;;17.33;11.73;;;1.50;99.90;;;;;;5092676;28;20051;-63
2022/11/21 00:12:02;;;;;;;;;;;1.50;99.90;;;;;;5092574;28;20376;-63
2022/11/21 00:14:29;;;;;;;18.10;12.68;;;1.40;99.90;;;;;;5093278;28;19934;-64
2022/11/21 00:16:55;;;;;;;18.08;10.55;;;1.40;99.90;;;;;;5092107;28;20093;-62
2022/11/21 00:19:22;;;;;;;18.02;11.75;;;1.40;99.90;;;;;;5091723;28;20139;-63
2022/11/21 00:21:49;;;;;;;19.48;11.98;;;1.30;99.90;;;;;;5091762;28;20051;-63
2022/11/21 00:24:16;;;;;;;16.92;10.85;;;1.30;99.90;;;;;;5092101;28;20105;-63
2022/11/21 00:26:44;;;;;;;15.98;10.48;;;1.30;99.90;;;;;;5091420;28;20052;-63
2022/11/21 00:29:11;;;;;;;18.27;11.45;;;1.40;99.90;;;;;;5092242;28;20052;-63
2022/11/21 00:31:38;;;;;;;17.02;10.38;;;1.40;99.90;;;;;;5093053;28;20071;-62
2022/11/21 00:34:05;;;;;;;18.30;11.40;;;1.30;99.90;;;;;;5092485;28;20502;-62
2022/11/21 00:36:32;;;;;;;17.73;12.18;;;1.30;99.90;;;;;;5091278;28;20059;-63
2022/11/21 00:38:59;;;;;;;16.27;11.07;;;1.40;99.90;;;;;;5093040;28;20040;-63
2022/11/21 00:41:26;;;;;;;17.67;11.43;;;1.30;99.90;;;;;;5090759;28;20048;-63
2022/11/21 00:43:54;;;;;;;16.85;12.00;;;1.40;99.90;;;;;;5091618;28;20044;-63
2022/11/21 00:46:21;;;;;;;18.23;11.20;;;1.40;99.90;;;;;;5089937;28;20153;-64
2022/11/21 00:48:47;;;;;;;18.60;12.30;;;1.30;99.90;;;;;;5091548;28;20054;-64
2022/11/21 00:51:14;;;;;;;17.38;11.63;;;1.30;99.90;;;;;;5092361;28;20050;-63
2022/11/21 00:53:41;;;;;;;17.60;11.68;;;1.30;99.90;;;;;;5090909;28;20113;-63
2022/11/21 00:56:09;;;;;;;16.35;10.85;;;1.20;99.90;;;;;;5091607;28;20066;-64
2022/11/21 00:58:35;;;;;;;17.70;11.77;;;1.20;99.90;;;;;;5092772;28;20044;-63
2022/11/21 01:01:08;;;;;;;17.05;11.77;;;1.10;99.90;;;;;;5091423;28;20055;-63
2022/11/21 01:03:36;;;;;;;16.80;11.65;;;1.00;99.90;;;;;;5091537;28;20064;-63
2022/11/21 01:06:05;;;;;;;20.02;12.32;;;0.90;99.90;;;;;;5092688;28;20101;-64
2022/11/21 01:08:32;;;;;;;17.88;11.95;;;0.90;99.90;;;;;;5090931;28;20055;-63
2022/11/21 01:11:02;;;;;;;18.52;12.30;;;0.80;99.90;;;;;;5091324;28;20059;-64
2022/11/21 01:13:29;;;;;;;19.95;12.20;;;0.60;99.90;;;;;;5092279;28;20046;-63
2022/11/21 01:15:56;;;;;;;19.35;11.90;;;0.60;99.90;;;;;;5089830;28;20036;-63
2022/11/21 01:18:24;;;;;;;22.08;12.23;;;0.50;99.90;;;;;;5091203;28;20152;-63
2022/11/21 01:20:51;;;;;;;22.48;12.18;;;0.40;99.90;;;;;;5092505;28;20506;-64
2022/11/21 01:23:18;;;;;;;18.80;12.43;;;0.30;99.90;;;;;;5090120;28;20419;-63
2022/11/21 01:25:45;;;;;;;18.88;12.77;;;0.20;99.90;;;;;;5091246;28;20060;-64
2022/11/21 01:28:12;;;;;;;19.73;12.27;;;0.20;99.90;;;;;;5090884;28;20048;-63
2022/11/21 01:30:38;;;;;;;17.80;11.77;;;0.10;99.90;;;;;;5090684;28;20059;-62
2022/11/21 01:33:05;;;;;;;20.23;11.95;;;0.00;99.90;;;;;;5088733;28;20047;-63
2022/11/21 01:35:34;;;;;;;20.05;12.32;;;-0.10;99.90;;;;;;5091689;28;20135;-63
2022/11/21 01:38:00;;;;;;;20.52;11.48;;;-0.10;99.90;;;;;;5087820;28;20044;-64
2022/11/21 01:40:27;;;;;;;17.23;11.65;;;-0.20;99.90;;;;;;5091486;28;20056;-63
2022/11/21 01:42:58;;;;;;;19.55;12.45;;;-0.30;99.90;;;;;;5090574;28;20044;-64
2022/11/21 01:46:01;;;;;;;22.48;12.68;;;-0.30;99.90;;;;;;5092316;28;20051;-64
2022/11/21 01:48:33;;;;;;;19.23;12.30;;;-0.40;99.90;;;;;;5091908;28;20043;-63
2022/11/21 01:51:07;;;;;;;21.65;12.68;;;-0.50;99.90;;;;;;5088587;28;20051;-63
2022/11/21 01:53:34;;;;;;;17.55;12.20;;;-0.50;99.90;;;;;;5089405;28;20094;-63
2022/11/21 01:56:02;;;;;;;18.48;12.35;;;-0.50;99.90;;;;;;5091959;28;20055;-63
2022/11/21 01:58:30;;;;;;;17.05;12.40;;;-0.60;99.90;;;;;;5090323;28;20052;-63
2022/11/21 02:00:57;;;;;;;17.40;11.80;;;-0.70;99.90;;;;;;5090752;28;20052;-63
2022/11/21 02:03:27;;;;;;;18.77;13.05;;;-0.70;99.90;;;;;;5090392;28;20044;-63
2022/11/21 02:05:55;;;;;;;20.83;12.80;;;-0.80;99.90;;;;;;5094154;28;20055;-64
2022/11/21 02:08:26;;;;;;;21.15;12.32;;;-0.80;99.90;;;;;;5095906;28;20044;-63
2022/11/21 02:11:03;;;;;;;20.40;12.98;;;-0.90;99.90;;;;;;5094277;28;20074;-63
2022/11/21 02:13:30;;;;;;;22.00;13.23;;;-0.90;99.90;;;;;;5094639;28;20059;-62
2022/11/21 02:15:58;;;;;;;21.80;12.52;;;-0.90;99.90;;;;;;5093931;28;20043;-63
2022/11/21 02:18:24;;;;;;;20.75;13.38;;;-1.00;99.90;;;;;;5094669;28;20491;-63
2022/11/21 02:20:56;;;;;;;21.83;12.63;;;-1.00;99.90;;;;;;5094799;28;20052;-63
2022/11/21 02:23:31;;;;;;;19.55;12.63;;;-1.00;99.90;;;;;;5094472;28;20052;-64
2022/11/21 02:26:00;;;;;;;20.52;13.02;;;-1.00;99.90;;;;;;5095151;28;20059;-63
2022/11/21 02:28:28;;;;;;;18.40;12.25;;;-1.00;99.90;;;;;;5093675;28;20052;-63
2022/11/21 02:30:55;;;;;;;20.38;13.10;;;-1.10;99.90;;;;;;5095338;28;20048;-63
2022/11/21 02:33:22;;;;;;;20.30;13.70;;;-1.10;99.90;;;;;;5093813;28;20487;-63
2022/11/21 02:36:00;;;;;;;21.55;14.05;;;-1.20;99.90;;;;;;5094410;28;20439;-62
2022/11/21 02:38:30;;;;;;;23.02;13.10;;;-1.20;99.90;;;;;;5094154;28;20074;-64
2022/11/21 02:41:01;;;;;;;;;;;-1.20;99.90;;;;;;5095039;28;20396;-62
2022/11/21 02:43:31;;;;;;;18.60;12.20;;;-1.20;99.90;;;;;;5092138;28;19935;-63
2022/11/21 02:45:58;;;;;;;23.45;13.55;;;-1.20;99.90;;;;;;5093067;28;20055;-62
2022/11/21 02:48:25;;;;;;;19.25;12.68;;;-1.20;99.90;;;;;;5094572;28;20048;-63
2022/11/21 02:50:52;;;;;;;25.00;13.13;;;-1.20;99.90;;;;;;5093022;28;20047;-63
2022/11/21 02:53:19;;;;;;;20.42;13.13;;;-1.30;99.90;;;;;;5094190;28;20560;-63
2022/11/21 02:55:46;;;;;;;19.92;12.38;;;-1.30;99.90;;;;;;5094131;28;20176;-63
2022/11/21 02:58:15;;;;;;;20.95;13.52;;;-1.30;99.90;;;;;;5093508;28;20048;-63
2022/11/21 03:00:43;;;;;;;24.60;13.77;;;-1.30;99.90;;;;;;5094320;28;20040;-63
2022/11/21 03:03:10;;;;;;;21.23;13.60;;;-1.30;99.90;;;;;;5091270;28;20079;-63
2022/11/21 03:05:38;;;;;;;21.52;14.48;;;-1.40;99.90;;;;;;5093805;28;20054;-63
2022/11/21 03:08:06;;;;;;;22.08;14.27;;;-1.40;99.90;;;;;;5094161;28;20044;-63
2022/11/21 03:10:33;;;;;;;23.00;13.00;;;-1.40;99.90;;;;;;5093459;28;20048;-63
2022/11/21 03:13:00;;;;;;;19.13;11.88;;;-1.40;99.90;;;;;;5089521;28;20048;-62
2022/11/21 03:15:30;;;;;;;24.40;15.13;;;-1.50;99.90;;;;;;5088748;28;20085;-64
2022/11/21 03:17:59;;;;;;;22.95;13.82;;;-1.50;99.90;;;;;;5094740;28;20408;-63
2022/11/21 03:20:27;;;;;;;20.48;14.00;;;-1.50;99.90;;;;;;5094810;28;20058;-62
2022/11/21 03:22:53;;;;;;;25.20;14.68;;;-1.50;99.90;;;;;;5093507;28;20048;-63
2022/11/21 03:25:20;;;;;;;27.85;15.30;;;-1.50;99.90;;;;;;5093395;28;20484;-63
2022/11/21 03:27:50;;;;;;;26.88;14.45;;;-1.60;99.90;;;;;;5094359;28;20052;-63
2022/11/21 03:30:17;;;;;;;20.17;13.43;;;-1.50;99.90;;;;;;5092005;28;20113;-63
2022/11/21 03:32:46;;;;;;;33.08;17.17;;;-1.60;99.90;;;;;;5093870;28;20323;-64
2022/11/21 03:35:13;;;;;;;25.05;15.73;;;-1.60;99.90;;;;;;5092751;28;20106;-64
2022/11/21 03:37:40;;;;;;;27.48;15.70;;;-1.60;99.90;;;;;;5090576;28;20055;-63
2022/11/21 03:40:08;;;;;;;28.10;15.95;;;-1.60;99.90;;;;;;5092912;28;20055;-63
2022/11/21 03:42:35;;;;;;;23.17;14.95;;;-1.70;99.90;;;;;;5091686;28;20055;-63
2022/11/21 03:45:02;;;;;;;25.20;15.02;;;-1.70;99.90;;;;;;5092624;28;20449;-63
2022/11/21 03:47:29;;;;;;;27.55;14.85;;;-1.70;99.90;;;;;;5091576;28;20480;-63
2022/11/21 03:49:57;;;;;;;25.05;15.10;;;-1.70;99.90;;;;;;5092266;28;20385;-63
2022/11/21 03:52:24;;;;;;;23.42;13.57;;;-1.80;99.90;;;;;;5092620;28;20050;-63
2022/11/21 03:54:51;;;;;;;24.00;16.00;;;-1.70;99.90;;;;;;5092744;28;20060;-62
2022/11/21 03:57:18;;;;;;;24.63;14.30;;;-1.80;99.90;;;;;;5092127;28;20484;-63
2022/11/21 03:59:45;;;;;;;23.77;13.98;;;-1.80;99.90;;;;;;5092673;28;20052;-64
2022/11/21 04:02:12;;;;;;;22.65;13.93;;;-1.90;99.90;;;;;;5093932;28;20051;-62
2022/11/21 04:04:39;;;;;;;25.88;15.98;;;-1.90;99.90;;;;;;5091814;28;20476;-63
2022/11/21 04:07:07;;;;;;;28.50;17.00;;;-1.90;99.90;;;;;;5093097;28;20097;-63
2022/11/21 04:09:34;;;;;;;26.40;15.60;;;-1.90;99.90;;;;;;5092402;28;20052;-64
2022/11/21 04:12:01;;;;;;;29.67;17.13;;;-1.90;99.90;;;;;;5091920;28;20052;-64
2022/11/21 04:14:27;;;;;;;27.85;16.55;;;-1.90;99.90;;;;;;5091463;28;20538;-63
2022/11/21 04:16:54;;;;;;;26.15;16.35;;;-1.90;99.90;;;;;;5093277;28;20515;-64
2022/11/21 04:19:21;;;;;;;30.13;16.48;;;-1.90;99.90;;;;;;5089514;28;20438;-64
2022/11/21 04:21:48;;;;;;;28.90;16.75;;;-2.00;99.90;;;;;;5093341;28;20508;-64
2022/11/21 04:24:16;;;;;;;30.95;17.33;;;-2.00;99.90;;;;;;5092808;28;20048;-62
2022/11/21 04:26:43;;;;;;;26.67;17.25;;;-1.90;99.90;;;;;;5091002;28;20051;-65
2022/11/21 04:29:10;;;;;;;30.20;17.80;;;-1.90;99.90;;;;;;5091831;28;20060;-63
2022/11/21 04:31:37;;;;;;;32.42;18.30;;;-1.90;99.90;;;;;;5091451;28;20044;-62
2022/11/21 04:34:04;;;;;;;31.15;17.90;;;-1.80;99.90;;;;;;5090977;28;20051;-63
2022/11/21 04:36:31;;;;;;;31.17;18.27;;;-1.80;99.90;;;;;;5092991;28;20048;-62
2022/11/21 04:38:58;;;;;;;32.00;17.60;;;-1.80;99.90;;;;;;5092520;28;20048;-64
2022/11/21 04:41:26;;;;;;;27.90;17.98;;;-1.70;99.90;;;;;;5092823;28;20055;-62
2022/11/21 04:43:53;;;;;;;27.60;17.55;;;-1.70;99.90;;;;;;5091351;28;20052;-62
2022/11/21 04:46:20;;;;;;;29.50;18.23;;;-1.70;99.90;;;;;;5092260;28;20048;-63
2022/11/21 04:48:46;;;;;;;32.05;18.55;;;-1.70;99.90;;;;;;5089268;28;20108;-63
2022/11/21 04:51:13;;;;;;;28.77;17.65;;;-1.60;99.90;;;;;;5092867;28;20512;-63
2022/11/21 04:53:40;;;;;;;29.52;18.58;;;-1.60;99.90;;;;;;5090918;28;20113;-62
2022/11/21 04:56:07;;;;;;;31.10;19.80;;;-1.50;99.90;;;;;;5091844;28;20050;-63
2022/11/21 04:58:35;;;;;;;29.83;17.85;;;-1.50;99.90;;;;;;5090344;28;20423;-63
2022/11/21 05:01:07;;;;;;;32.25;19.30;;;-1.50;99.90;;;;;;5092044;28;20105;-62
2022/11/21 05:03:34;;;;;;;32.75;18.83;;;-1.50;99.90;;;;;;5092648;28;20040;-63
2022/11/21 05:06:01;;;;;;;31.17;17.42;;;-1.50;99.90;;;;;;5091562;28;20047;-63
2022/11/21 05:08:28;;;;;;;29.20;17.30;;;-1.50;99.90;;;;;;5092017;28;20040;-63
2022/11/21 05:13:40;;;;;;;32.60;19.35;;;-1.60;99.90;;;;;;5089264;28;20444;-63
2022/11/21 05:16:07;;;;;;;28.35;17.73;;;-1.60;99.90;;;;;;5091381;28;20044;-64
2022/11/21 05:18:34;;;;;;;28.63;18.33;;;-1.60;99.90;;;;;;5090968;28;20502;-63
2022/11/21 05:21:01;;;;;;;26.95;16.38;;;-1.70;99.90;;;;;;5090487;28;20089;-63
2022/11/21 05:23:28;;;;;;;28.42;17.60;;;-1.70;99.90;;;;;;5091088;28;20635;-64
2022/11/21 05:25:55;;;;;;;34.40;17.77;;;-1.10;99.90;;;;;;5092281;28;20377;-64
2022/11/21 05:28:22;;;;;;;30.02;17.90;;;-1.80;99.90;;;;;;5089116;28;20446;-63
2022/11/21 05:30:50;;;;;;;26.20;16.92;;;-1.80;99.90;;;;;;5092348;28;20040;-63
2022/11/21 05:33:17;;;;;;;29.05;16.23;;;-1.80;99.90;;;;;;5091008;28;20133;-63
2022/11/21 05:35:44;;;;;;;30.40;16.88;;;-1.90;99.90;;;;;;5089098;28;20052;-64
2022/11/21 05:38:11;;;;;;;29.80;17.13;;;-1.90;99.90;;;;;;5088928;28;20040;-64
2022/11/21 05:40:39;;;;;;;24.85;17.60;;;-1.90;99.90;;;;;;5091615;28;20508;-63
2022/11/21 05:45:51;;;;;;;31.27;17.80;;;-1.90;99.90;;;;;;5091048;28;20403;-63
2022/11/21 05:48:18;;;;;;;33.58;18.30;;;-1.90;99.90;;;;;;5090910;28;20055;-63
2022/11/21 05:50:48;;;;;;;30.38;16.23;;;-2.00;99.90;;;;;;5090174;28;20056;-63
2022/11/21 05:53:15;;;;;;;26.23;16.85;;;-2.00;99.90;;;;;;5091565;28;20075;-62
2022/11/21 05:55:42;;;;;;;28.83;16.73;;;-2.00;99.90;;;;;;5091266;28;20066;-64
2022/11/21 05:58:09;;;;;;;30.08;17.50;;;-2.00;99.90;;;;;;5090716;28;20044;-64
2022/11/21 06:00:37;;;;;;;30.83;17.63;;;-2.00;99.90;;;;;;5089587;28;20088;-62
2022/11/21 06:05:49;;;;;;;28.48;17.52;;;-2.10;99.90;;;;;;5090577;28;20048;-64
2022/11/21 06:08:16;;;;;;;31.23;17.80;;;-2.20;99.90;;;;;;5091670;28;20557;-63
2022/11/21 06:10:43;;;;;;;30.67;17.25;;;-2.20;99.90;;;;;;5089900;28;20044;-63
2022/11/21 06:13:20;;;;;;;29.98;18.42;;;-2.10;99.90;;;;;;5090573;28;20488;-63
2022/11/21 06:15:58;;;;;;;29.63;17.27;;;-2.20;99.90;;;;;;5079428;28;20056;-62
2022/11/21 06:18:26;;;;;;;30.02;18.23;;;-2.20;99.90;;;;;;5080085;28;20055;-63
2022/11/21 06:20:53;;;;;;;30.98;18.38;;;-2.00;99.90;;;;;;5084889;28;20385;-62
2022/11/21 06:23:20;;;;;;;34.65;18.85;;;-1.90;99.90;;;;;;5078215;28;20051;-63
2022/11/21 06:25:47;;;;;;;31.42;19.05;;;-1.90;99.90;;;;;;5083390;28;20098;-62
2022/11/21 06:28:14;;;;;;;34.20;19.30;;;-1.80;99.90;;;;;;5075699;28;20456;-63
2022/11/21 06:30:41;;;;;;;33.90;19.50;;;-1.90;99.90;;;;;;5088735;28;20048;-64
2022/11/21 06:33:08;;;;;;;31.50;18.77;;;-1.90;99.90;;;;;;5079525;28;20128;-63
2022/11/21 06:35:38;;;;;;;34.80;19.90;;;-1.90;99.90;;;;;;5076898;28;20102;-63
2022/11/21 06:38:05;;;;;;;31.45;19.45;;;-2.00;99.90;;;;;;5084130;28;20115;-64
2022/11/21 06:40:32;;;;;;;35.25;19.50;;;-2.00;99.90;;;;;;5082677;28;20392;-63
2022/11/21 06:42:59;;;;;;;29.58;19.20;;;-2.00;99.90;;;;;;5085542;28;20055;-63
2022/11/21 06:45:26;;;;;;;32.70;19.05;;;-2.00;99.90;;;;;;5084721;28;20461;-65
2022/11/21 06:47:53;;;;;;;31.83;17.80;;;-2.00;99.90;;;;;;5086187;28;20059;-63
2022/11/21 06:50:20;;;;;;;31.95;17.67;;;-2.10;99.90;;;;;;5088749;28;20063;-63
2022/11/21 06:52:48;;;;;;;32.20;18.80;;;-2.10;99.90;;;;;;5086021;28;20060;-63
2022/11/21 06:55:15;;;;;;;31.45;18.13;;;-2.20;99.90;;;;;;5088238;28;20051;-63
2022/11/21 06:57:42;;;;;;;34.28;20.25;;;-2.20;99.90;;;;;;5087869;28;20048;-63
2022/11/21 07:00:10;;;;;;;31.70;18.33;;;-2.10;99.90;;;;;;5082584;28;20048;-63
2022/11/21 07:02:37;;;;;;;32.13;20.02;;;-2.10;99.90;;;;;;5085529;28;20048;-63
2022/11/21 07:05:04;;;;;;;33.20;20.48;;;-2.10;99.90;;;;;;5087280;28;20447;-62
2022/11/21 07:07:31;;;;;;;33.33;18.67;;;-2.20;99.90;;;;;;5084721;28;20407;-63
2022/11/21 07:09:59;;;;;;;32.22;17.92;;;-2.10;99.90;;;;;;5086570;28;20454;-63
2022/11/21 07:15:11;;;;;;;32.92;18.58;;;-2.20;99.90;;;;;;5087990;28;20492;-63
2022/11/21 07:17:38;;;;;;;34.47;18.23;;;-2.20;99.90;;;;;;5087435;28;20411;-64
2022/11/21 07:20:06;;;;;;;32.03;18.65;;;-2.20;99.90;;;;;;5085887;28;20047;-63
2022/11/21 07:22:32;;;;;;;32.55;20.00;;;-2.10;99.90;;;;;;5086800;28;20048;-63
2022/11/21 07:25:01;;;;;;;32.20;18.00;;;-2.10;99.90;;;;;;5085668;28;20415;-63
2022/11/21 07:27:28;;;;;;;33.53;17.70;;;-2.10;99.90;;;;;;5085179;28;20051;-63
2022/11/21 07:29:56;;;;;;;37.63;20.33;;;-2.10;99.90;;;;;;5085856;28;20048;-64
2022/11/21 07:32:23;;;;;;;32.88;18.85;;;-2.00;99.90;;;;;;5086383;28;20051;-63
2022/11/21 07:34:50;;;;;;;31.70;18.00;;;-2.00;99.90;;;;;;5084729;28;20052;-64
2022/11/21 07:37:17;;;;;;;32.65;19.00;;;-2.00;99.90;;;;;;5085027;28;20832;-64
2022/11/21 07:39:44;;;;;;;33.80;19.27;;;-1.90;99.90;;;;;;5085745;28;20062;-62
2022/11/21 07:42:13;;;;;;;29.88;18.25;;;-1.80;99.90;;;;;;5085097;28;20056;-63
2022/11/21 07:44:40;;;;;;;33.90;19.83;;;-1.80;99.90;;;;;;5087326;28;20122;-63
2022/11/21 07:47:07;;;;;;;36.03;19.75;;;-1.70;99.90;;;;;;5086552;28;20102;-63
2022/11/21 07:49:34;;;;;;;31.65;18.52;;;-1.60;99.90;;;;;;5085037;28;20052;-63
2022/11/21 07:52:01;;;;;;;34.03;19.33;;;-1.60;99.90;;;;;;5085915;28;20451;-81
2022/11/21 07:54:28;;;;;;;36.90;20.92;;;-1.50;99.90;;;;;;5090253;28;20055;-62
2022/11/21 07:56:55;;;;;;;35.83;20.63;;;-1.20;99.90;;;;;;5081638;28;20067;-64
2022/11/21 07:59:23;;;;;;;40.83;24.52;;;-0.50;99.90;;;;;;5084228;28;20400;-63
2022/11/21 08:01:51;;;;;;;36.53;21.58;;;0.70;99.90;;;;;;5088879;28;20519;-63
2022/11/21 08:04:18;;;;;;;27.95;17.20;;;2.40;99.90;;;;;;5086300;28;20044;-63
2022/11/21 08:06:45;;;;;;;23.83;15.35;;;3.60;99.90;;;;;;5085239;28;20130;-64
2022/11/21 08:09:12;;;;;;;25.25;14.98;;;5.40;99.90;;;;;;5086580;28;20056;-64
2022/11/21 08:11:38;;;;;;;25.70;15.48;;;5.50;99.90;;;;;;5082475;28;20052;-63
2022/11/21 08:14:05;;;;;;;28.33;15.93;;;6.30;99.90;;;;;;5084625;28;20048;-64
2022/11/21 08:16:33;;;;;;;25.02;15.05;;;7.00;99.90;;;;;;5088646;28;20048;-64
2022/11/21 08:19:00;;;;;;;24.33;15.18;;;7.60;99.90;;;;;;5087883;28;20052;-64
2022/11/21 08:21:27;;;;;;;26.63;15.98;;;7.70;99.90;;;;;;5090125;28;20118;-63
2022/11/21 08:23:55;;;;;;;22.08;15.23;;;8.20;99.90;;;;;;5083324;28;20060;-64
2022/11/21 08:26:21;;;;;;;22.42;14.52;;;8.60;99.90;;;;;;5090983;28;20040;-63
2022/11/21 08:28:48;;;;;;;24.92;14.45;;;8.70;99.90;;;;;;5084510;28;20052;-64
2022/11/21 08:31:15;;;;;;;23.75;15.25;;;9.00;99.90;;;;;;5089194;28;20056;-63
2022/11/21 08:33:43;;;;;;;21.05;14.50;;;9.40;99.90;;;;;;5083744;28;20059;-64
2022/11/21 08:36:11;;;;;;;22.83;14.63;;;10.10;99.90;;;;;;5084111;28;20058;-64
2022/11/21 08:38:37;;;;;;;19.13;13.60;;;10.60;99.90;;;;;;5086700;28;20104;-65
2022/11/21 08:43:48;;;;;;;20.80;13.43;;;10.10;99.90;;;;;;5082338;28;20174;-64
2022/11/21 08:46:16;;;;;;;19.60;12.73;;;9.20;99.90;;;;;;5090319;28;20052;-64
2022/11/21 08:48:45;;;;;;;19.67;12.93;;;8.20;99.90;;;;;;5084128;28;20047;-65
2022/11/21 08:51:12;;;;;;;17.80;12.60;;;7.40;99.90;;;;;;5085501;28;20385;-64
2022/11/21 08:53:39;;;;;;;16.25;12.20;;;6.60;99.90;;;;;;5084642;28;20051;-65
2022/11/21 08:56:05;;;;;;;20.05;13.27;;;5.60;99.90;;;;;;5081682;28;20439;-64
2022/11/21 08:58:32;;;;;;;20.30;12.55;;;5.00;99.90;;;;;;5082527;28;20086;-65
2022/11/21 09:01:00;;;;;;;19.35;13.30;;;4.40;99.90;;;;;;5087661;28;20052;-64
2022/11/21 09:03:27;;;;;;;24.13;13.80;;;3.90;99.90;;;;;;5081941;28;20502;-64
2022/11/21 09:05:57;;;;;;;16.80;12.23;;;3.50;99.90;;;;;;5083131;28;20052;-65
2022/11/21 09:08:24;;;;;;;19.15;13.57;;;3.20;99.90;;;;;;5083289;28;20081;-64
2022/11/21 09:10:51;;;;;;;19.30;13.35;;;3.10;99.90;;;;;;5082308;28;20048;-65
2022/11/21 09:13:18;;;;;;;18.63;12.90;;;2.90;99.90;;;;;;5087761;28;20044;-63
2022/11/21 09:18:29;;;;;;;19.83;12.57;;;2.60;99.90;;;;;;5083839;28;20047;-63
2022/11/21 09:20:58;;;;;;;21.02;12.63;;;2.40;99.90;;;;;;5082082;28;20059;-64
2022/11/21 09:23:24;;;;;;;19.60;13.57;;;2.30;99.90;;;;;;5086302;28;20055;-64
2022/11/21 09:25:51;;;;;;;21.42;13.25;;;2.20;99.90;;;;;;5087415;28;20446;-64
2022/11/21 09:28:18;;;;;;;18.77;12.50;;;2.20;99.90;;;;;;5083423;28;20048;-64
2022/11/21 09:30:45;;;;;;;21.75;12.43;;;2.00;99.90;;;;;;5088013;28;20064;-64
2022/11/21 09:33:15;;;;;;;21.17;12.35;;;2.10;99.90;;;;;;5084894;28;20059;-64
2022/11/21 09:35:42;;;;;;;22.50;13.75;;;2.10;99.90;;;;;;5081892;28;20135;-64
2022/11/21 09:38:12;;;;;;;18.05;13.23;;;2.00;99.90;;;;;;5088122;28;20044;-64
2022/11/21 09:40:44;;;;;;;20.67;13.05;;;1.90;99.90;;;;;;5086166;28;20056;-64
2022/11/21 09:43:30;;;;;;;22.80;14.25;;;2.00;99.90;;;;;;5080381;28;20071;-63
2022/11/21 09:46:01;;;;;;;21.52;13.00;;;1.80;99.90;;;;;;5085370;28;20044;-63
2022/11/21 09:48:33;;;;;;;20.92;12.52;;;1.80;99.90;;;;;;5086036;28;20470;-63
2022/11/21 09:51:04;;;;;;;19.98;12.85;;;1.80;99.90;;;;;;5081345;28;20407;-64
2022/11/21 09:53:34;;;;;;;21.63;13.23;;;2.00;99.90;;;;;;5082557;28;20050;-63
2022/11/21 09:56:07;;;;;;;18.48;12.25;;;2.00;99.90;;;;;;5081997;28;20078;-64
2022/11/21 09:58:39;;;;;;;22.45;12.75;;;2.10;99.90;;;;;;5083138;28;20044;-64
2022/11/21 10:01:12;;;;;;;23.05;13.48;;;2.10;99.90;;;;;;5089528;28;20044;-62
2022/11/21 10:03:42;;;;;;;21.83;13.98;;;2.10;99.90;;;;;;5081660;28;20044;-64
2022/11/21 10:06:18;;;;;;;22.35;14.45;;;2.20;99.90;;;;;;5084238;28;20058;-63
2022/11/21 10:08:57;;;;;;;21.30;13.77;;;2.30;99.90;;;;;;5085853;28;20044;-63
2022/11/21 10:12:35;;;;;;;22.65;13.93;;;2.50;99.90;;;;;;5081954;28;20075;-64
2022/11/21 10:14:38;;;;;;;18.42;11.98;;;2.60;99.90;;;;;;5082243;28;20094;-64
2022/11/21 10:17:16;;;;;;;20.20;12.75;;;2.70;99.90;;;;;;5083671;28;20064;-66
2022/11/21 10:20:03;;;;;;;21.48;12.98;;;2.80;99.90;;;;;;5080642;28;20049;-62
2022/11/21 10:22:50;;;;;;;22.55;13.02;;;2.80;99.90;;;;;;5088656;28;20113;-75
2022/11/21 10:25:23;;;;;;;20.63;12.70;;;3.00;99.90;;;;;;5086293;28;20052;-61
2022/11/21 10:27:54;;;;;;;20.05;12.80;;;3.10;99.90;;;;;;5087470;28;20052;-62
2022/11/21 10:30:22;;;;;;;18.67;12.20;;;3.20;99.90;;;;;;5092623;28;20047;-61
2022/11/21 10:32:52;;;;;;;21.48;12.48;;;3.30;99.90;;;;;;5083787;28;20048;-61
2022/11/21 10:35:22;;;;;;;20.77;13.02;;;3.30;99.90;;;;;;5084628;28;20044;-61
2022/11/21 10:37:52;;;;;;;19.52;12.60;;;3.40;99.90;;;;;;5086449;28;20106;-61
2022/11/21 10:40:31;;;;;;;19.20;12.45;;;3.50;99.90;;;;;;5088346;28;20043;-62
2022/11/21 10:45:14;;;;;;;18.55;11.77;;;3.90;99.90;;;;;;5088768;28;20416;-61
2022/11/21 10:45:47;;;;;;;19.58;12.40;;;4.30;99.90;;;;;;5085257;28;20136;-61
2022/11/21 10:48:14;;;;;;;19.85;13.40;;;4.50;99.90;;;;;;5086886;28;20063;-60
2022/11/21 10:50:53;;;;;;;18.70;13.40;;;4.30;99.90;;;;;;5087754;28;20098;-61
2022/11/21 10:56:11;;;;;;;17.38;12.35;;;3.90;99.90;;;;;;5088829;28;20076;-61
2022/11/21 10:58:44;;;;;;;19.77;12.88;;;3.90;99.90;;;;;;5085496;28;20060;-61
2022/11/21 11:01:22;;;;;;;17.85;11.80;;;3.90;99.90;;;;;;5091563;28;20048;-63
2022/11/21 11:04:06;;;;;;;20.38;13.13;;;4.40;99.90;;;;;;5084358;28;20055;-61
2022/11/21 11:06:33;;;;;;;17.00;11.38;;;5.20;99.90;;;;;;5084776;28;20059;-61
2022/11/21 11:09:00;;;;;;;19.80;12.63;;;5.30;99.90;;;;;;5086371;28;20407;-64
2022/11/21 11:11:28;;;;;;;16.45;11.13;;;5.50;99.90;;;;;;5088642;28;20044;-67
2022/11/21 11:13:58;;;;;;;15.88;11.77;;;6.20;99.90;;;;;;5083196;28;20048;-65
2022/11/21 11:16:26;;;;;;;15.68;10.95;;;7.70;99.90;;;;;;5088450;28;20075;-66
2022/11/21 11:18:59;;;;;;;15.68;11.52;;;9.20;99.90;;;;;;5089034;28;20442;-62
2022/11/21 11:21:28;;;;;;;14.48;10.57;;;10.50;99.90;;;;;;5084107;28;20047;-66
2022/11/21 11:24:19;;;;;;;15.73;10.82;;;11.70;99.90;;;;;;5089934;28;20443;-64
2022/11/21 11:26:55;;;;;;;14.32;10.65;;;12.50;98.40;;;;;;5089277;28;20076;-64
2022/11/21 11:29:23;;;;;;;14.80;10.43;;;13.00;96.00;;;;;;5085402;28;20040;-63
2022/11/21 11:31:54;;;;;;;14.88;10.60;;;13.20;99.50;;;;;;5089998;28;20067;-64
2022/11/21 11:34:21;;;;;;;12.68;9.88;;;13.70;95.40;;;;;;5084861;28;20492;-64
2022/11/21 11:36:59;;;;;;;14.60;10.48;;;14.40;94.50;;;;;;5085284;28;20052;-63
2022/11/21 11:39:52;;;;;;;12.32;9.32;;;14.50;92.50;;;;;;5088118;28;20515;-63
2022/11/21 11:48:44;;;;;;;13.65;10.55;;;15.20;92.20;;;;;;5087400;28;20044;-64
2022/11/21 11:51:20;;;;;;;11.88;9.18;;;15.80;89.50;;;;;;5085174;28;20044;-64
2022/11/21 11:53:51;;;;;;;12.60;9.90;;;15.00;86.20;;;;;;5085579;28;20161;-64
2022/11/21 11:56:22;;;;;;;13.35;9.65;;;14.10;87.60;;;;;;5085700;28;20052;-64
2022/11/21 11:58:55;;;;;;;12.30;9.55;;;13.10;90.00;;;;;;5089304;28;20407;-65
2022/11/21 12:01:30;;;;;;;11.55;9.63;;;11.60;92.00;;;;;;5085556;28;20063;-64
2022/11/21 12:03:59;;;;;;;12.45;9.48;;;10.30;94.30;;;;;;5086908;28;20430;-65
2022/11/21 12:06:30;;;;;;;14.70;9.75;;;9.40;97.30;;;;;;5084978;28;20075;-64
2022/11/21 12:09:02;;;;;;;17.95;10.48;;;8.60;99.10;;;;;;5090329;28;20051;-64
2022/11/21 12:12:07;;;;;;;14.07;9.75;;;7.90;99.90;;;;;;5083757;28;20051;-64
2022/11/21 12:17:45;;;;;;;18.15;11.15;;;7.00;99.90;;;;;;5084810;28;20055;-64
2022/11/21 12:20:19;;;;;;;14.73;10.45;;;6.80;99.90;;;;;;5090961;28;20040;-64
2022/11/21 12:22:49;;;;;;;14.23;10.60;;;6.40;99.90;;;;;;5089034;28;20052;-64
2022/11/21 12:25:19;;;;;;;12.57;9.48;;;6.20;99.90;;;;;;5081329;28;20384;-64
2022/11/21 12:27:51;;;;;;;14.43;10.77;;;6.00;99.90;;;;;;5086800;28;20052;-63
2022/11/21 12:30:45;;;;;;;17.02;10.60;;;5.80;99.90;;;;;;5088480;28;20048;-64
2022/11/21 12:33:19;;;;;;;14.40;10.10;;;5.70;99.90;;;;;;5085345;28;21262;-63
2022/11/21 12:36:03;;;;;;;15.88;9.80;;;5.50;99.90;;;;;;5086698;28;20397;-70
2022/11/21 12:38:49;;;;;;;14.57;9.82;;;5.30;99.90;;;;;;5084870;28;20480;-62
2022/11/21 12:44:24;;;;;;;12.57;9.20;;;5.00;99.90;;;;;;5081966;28;20163;-61
2022/11/21 12:47:06;;;;;;;13.63;9.00;;;4.90;99.90;;;;;;5086278;28;20044;-60
2022/11/21 12:55:31;;;;;;;13.43;8.93;;;4.60;99.90;;;;;;5083892;28;20066;-61
2022/11/21 12:58:11;;;;;;;13.85;8.20;;;4.60;99.90;;;;;;5085622;28;20052;-61
2022/11/21 13:00:49;;;;;;;15.45;9.75;;;4.60;99.90;;;;;;5089463;28;20047;-61
2022/11/21 13:03:44;;;;;;;13.05;8.30;;;4.60;99.90;;;;;;5084834;28;20055;-62
2022/11/21 13:06:16;;;;;;;13.50;8.73;;;4.50;99.90;;;;;;5079003;28;20563;-62
2022/11/21 13:08:45;;;;;;;12.70;7.93;;;4.50;99.90;;;;;;5084715;28;20511;-61
2022/11/21 13:14:21;;;;;;;13.05;8.05;;;4.40;99.90;;;;;;5085718;28;20050;-61
2022/11/21 13:17:00;;;;;;;15.07;8.45;;;4.40;99.90;;;;;;5085260;28;20059;-64
2022/11/21 13:19:36;;;;;;;12.15;8.18;;;4.30;99.90;;;;;;5085813;28;20044;-64
2022/11/21 13:22:02;;;;;;;14.07;8.43;;;4.20;99.90;;;;;;5086286;28;20048;-66
2022/11/21 13:24:56;;;;;;;15.05;8.73;;;4.20;99.90;;;;;;5086627;28;20063;-60
2022/11/21 13:27:31;;;;;;;12.32;9.05;;;4.20;99.90;;;;;;5083129;28;20502;-64